sensor_id;sensor_type;location;lat;lon;timestamp;pressure;altitude;pressure_sealevel;temperature;humidity
69879;BME280;57161;43.136;24.706;2023-10-08T00:01:08;99483.53;;;12.05;61.40
69879;BME280;57161;43.136;24.706;2023-10-08T00:03:38;99494.19;;;12.07;61.71
69879;BME280;57161;43.136;24.706;2023-10-08T00:06:04;99485.03;;;12.06;61.79
69879;BME280;57161;43.136;24.706;2023-10-08T00:08:37;99485.56;;;12.05;62.04
69879;BME280;57161;43.136;24.706;2023-10-08T00:11:03;99480.72;;;12.05;61.66
69879;BME280;57161;43.136;24.706;2023-10-08T00:13:33;99475.88;;;12.06;61.28
69879;BME280;57161;43.136;24.706;2023-10-08T00:16:07;99475.13;;;12.05;61.12
69879;BME280;57161;43.136;24.706;2023-10-08T00:18:37;99471.22;;;12.08;61.31
69879;BME280;57161;43.136;24.706;2023-10-08T00:21:04;99470.47;;;12.08;61.67
69879;BME280;57161;43.136;24.706;2023-10-08T00:23:36;99475.78;;;11.98;62.06
69879;BME280;57161;43.136;24.706;2023-10-08T00:26:07;99474.44;;;11.91;62.39
69879;BME280;57161;43.136;24.706;2023-10-08T00:28:33;99469.25;;;11.95;62.45
69879;BME280;57161;43.136;24.706;2023-10-08T00:30:58;99470.00;;;11.96;62.24
69879;BME280;57161;43.136;24.706;2023-10-08T00:33:31;99458.22;;;11.77;62.66
69879;BME280;57161;43.136;24.706;2023-10-08T00:35:57;99469.72;;;11.86;62.56
69879;BME280;57161;43.136;24.706;2023-10-08T00:38:23;99459.25;;;11.87;62.70
69879;BME280;57161;43.136;24.706;2023-10-08T00:40:51;99449.19;;;11.70;62.54
69879;BME280;57161;43.136;24.706;2023-10-08T00:43:31;99476.97;;;11.82;62.89
69879;BME280;57161;43.136;24.706;2023-10-08T00:46:03;99463.06;;;11.76;62.95
69879;BME280;57161;43.136;24.706;2023-10-08T00:48:29;99467.19;;;11.75;63.13
69879;BME280;57161;43.136;24.706;2023-10-08T00:51:05;99476.66;;;11.72;63.36
69879;BME280;57161;43.136;24.706;2023-10-08T00:53:56;99467.22;;;11.62;63.73
69879;BME280;57161;43.136;24.706;2023-10-08T00:56:29;99469.81;;;11.60;64.02
69879;BME280;57161;43.136;24.706;2023-10-08T00:59:12;99476.44;;;11.49;64.32
69879;BME280;57161;43.136;24.706;2023-10-08T01:01:44;99472.88;;;11.49;64.09
69879;BME280;57161;43.136;24.706;2023-10-08T01:04:33;99474.19;;;11.48;64.20
69879;BME280;57161;43.136;24.706;2023-10-08T01:07:03;99462.97;;;11.48;64.10
69879;BME280;57161;43.136;24.706;2023-10-08T01:09:40;99464.34;;;11.54;63.75
69879;BME280;57161;43.136;24.706;2023-10-08T01:12:15;99459.84;;;11.51;63.88
69879;BME280;57161;43.136;24.706;2023-10-08T01:14:43;99460.38;;;11.50;63.57
69879;BME280;57161;43.136;24.706;2023-10-08T01:17:13;99460.69;;;11.59;63.19
69879;BME280;57161;43.136;24.706;2023-10-08T01:19:45;99456.59;;;11.60;62.87
69879;BME280;57161;43.136;24.706;2023-10-08T01:22:22;99454.78;;;11.70;62.05
69879;BME280;57161;43.136;24.706;2023-10-08T01:24:51;99443.53;;;11.63;62.00
69879;BME280;57161;43.136;24.706;2023-10-08T01:27:19;99452.00;;;11.70;61.69
69879;BME280;57161;43.136;24.706;2023-10-08T01:29:53;99452.63;;;11.77;62.29
69879;BME280;57161;43.136;24.706;2023-10-08T01:32:22;99450.94;;;11.73;62.17
69879;BME280;57161;43.136;24.706;2023-10-08T01:34:49;99450.81;;;11.79;61.72
69879;BME280;57161;43.136;24.706;2023-10-08T01:37:18;99430.34;;;11.71;61.82
69879;BME280;57161;43.136;24.706;2023-10-08T01:39:47;99438.97;;;11.73;62.01
69879;BME280;57161;43.136;24.706;2023-10-08T01:42:15;99447.03;;;11.77;61.92
69879;BME280;57161;43.136;24.706;2023-10-08T01:44:48;99446.47;;;11.78;61.80
69879;BME280;57161;43.136;24.706;2023-10-08T01:47:16;99434.59;;;11.64;61.47
69879;BME280;57161;43.136;24.706;2023-10-08T01:49:43;99437.69;;;11.74;61.13
69879;BME280;57161;43.136;24.706;2023-10-08T01:52:12;99428.53;;;11.73;61.08
69879;BME280;57161;43.136;24.706;2023-10-08T01:54:50;99433.78;;;11.77;61.32
69879;BME280;57161;43.136;24.706;2023-10-08T01:57:19;99436.72;;;11.71;61.95
69879;BME280;57161;43.136;24.706;2023-10-08T01:59:44;99426.97;;;11.65;62.23
69879;BME280;57161;43.136;24.706;2023-10-08T02:02:11;99439.09;;;11.67;61.91
69879;BME280;57161;43.136;24.706;2023-10-08T02:04:45;99419.72;;;11.49;61.97
69879;BME280;57161;43.136;24.706;2023-10-08T02:07:11;99438.84;;;11.58;61.68
69879;BME280;57161;43.136;24.706;2023-10-08T02:09:40;99442.34;;;11.71;61.07
69879;BME280;57161;43.136;24.706;2023-10-08T02:12:06;99433.16;;;11.71;60.84
69879;BME280;57161;43.136;24.706;2023-10-08T02:14:33;99443.91;;;11.80;60.02
69879;BME280;57161;43.136;24.706;2023-10-08T02:17:01;99443.22;;;11.87;59.48
69879;BME280;57161;43.136;24.706;2023-10-08T02:19:31;99420.63;;;11.85;59.11
69879;BME280;57161;43.136;24.706;2023-10-08T02:21:57;99441.84;;;12.01;58.73
69879;BME280;57161;43.136;24.706;2023-10-08T02:24:24;99437.63;;;12.08;58.44
69879;BME280;57161;43.136;24.706;2023-10-08T02:26:51;99426.00;;;12.04;58.37
69879;BME280;57161;43.136;24.706;2023-10-08T02:29:18;99415.88;;;12.01;58.15
69879;BME280;57161;43.136;24.706;2023-10-08T02:31:43;99428.66;;;12.10;58.19
69879;BME280;57161;43.136;24.706;2023-10-08T02:34:09;99435.16;;;12.05;58.35
69879;BME280;57161;43.136;24.706;2023-10-08T02:36:39;99429.56;;;12.05;58.24
69879;BME280;57161;43.136;24.706;2023-10-08T02:39:06;99439.47;;;12.06;58.51
69879;BME280;57161;43.136;24.706;2023-10-08T02:41:43;99414.75;;;11.96;58.54
69879;BME280;57161;43.136;24.706;2023-10-08T02:44:12;99431.06;;;12.06;59.09
69879;BME280;57161;43.136;24.706;2023-10-08T02:46:44;99411.91;;;11.89;58.47
69879;BME280;57161;43.136;24.706;2023-10-08T02:49:13;99419.59;;;11.96;58.34
69879;BME280;57161;43.136;24.706;2023-10-08T02:51:42;99407.25;;;11.91;58.22
69879;BME280;57161;43.136;24.706;2023-10-08T02:54:10;99417.34;;;11.94;58.28
69879;BME280;57161;43.136;24.706;2023-10-08T02:56:57;99414.53;;;11.94;58.08
69879;BME280;57161;43.136;24.706;2023-10-08T02:59:29;99415.88;;;12.01;57.68
69879;BME280;57161;43.136;24.706;2023-10-08T03:02:05;99414.94;;;11.98;57.63
69879;BME280;57161;43.136;24.706;2023-10-08T03:04:40;99405.41;;;11.94;57.46
69879;BME280;57161;43.136;24.706;2023-10-08T03:07:05;99407.47;;;12.01;57.64
69879;BME280;57161;43.136;24.706;2023-10-08T03:09:37;99406.00;;;12.00;57.39
69879;BME280;57161;43.136;24.706;2023-10-08T03:12:07;99411.66;;;12.08;56.99
69879;BME280;57161;43.136;24.706;2023-10-08T03:14:35;99416.84;;;12.03;57.22
69879;BME280;57161;43.136;24.706;2023-10-08T03:17:13;99387.09;;;11.72;58.41
69879;BME280;57161;43.136;24.706;2023-10-08T03:19:45;99420.81;;;11.87;58.53
69879;BME280;57161;43.136;24.706;2023-10-08T03:22:11;99418.72;;;11.80;58.79
69879;BME280;57161;43.136;24.706;2023-10-08T03:24:37;99411.38;;;11.77;59.04
69879;BME280;57161;43.136;24.706;2023-10-08T03:27:04;99418.41;;;11.70;59.59
69879;BME280;57161;43.136;24.706;2023-10-08T03:29:37;99411.25;;;11.62;59.83
69879;BME280;57161;43.136;24.706;2023-10-08T03:32:12;99419.25;;;11.58;59.96
69879;BME280;57161;43.136;24.706;2023-10-08T03:34:48;99419.72;;;11.49;59.82
69879;BME280;57161;43.136;24.706;2023-10-08T03:37:16;99415.41;;;11.48;59.76
69879;BME280;57161;43.136;24.706;2023-10-08T03:39:54;99418.81;;;11.54;59.65
69879;BME280;57161;43.136;24.706;2023-10-08T03:42:32;99414.47;;;11.45;59.65
69879;BME280;57161;43.136;24.706;2023-10-08T03:45:06;99406.69;;;11.51;59.92
69879;BME280;57161;43.136;24.706;2023-10-08T03:47:38;99401.03;;;11.43;59.57
69879;BME280;57161;43.136;24.706;2023-10-08T03:50:07;99404.16;;;11.40;59.58
69879;BME280;57161;43.136;24.706;2023-10-08T03:52:36;99398.13;;;11.36;59.37
69879;BME280;57161;43.136;24.706;2023-10-08T03:55:06;99399.38;;;11.48;59.04
69879;BME280;57161;43.136;24.706;2023-10-08T03:57:41;99398.09;;;11.49;58.61
69879;BME280;57161;43.136;24.706;2023-10-08T04:00:15;99382.03;;;11.50;57.53
69879;BME280;57161;43.136;24.706;2023-10-08T04:02:54;99396.91;;;11.65;57.63
69879;BME280;57161;43.136;24.706;2023-10-08T04:05:23;99395.41;;;11.64;57.75
69879;BME280;57161;43.136;24.706;2023-10-08T04:07:57;99377.06;;;11.56;58.37
69879;BME280;57161;43.136;24.706;2023-10-08T04:10:41;99392.56;;;11.57;58.72
69879;BME280;57161;43.136;24.706;2023-10-08T04:13:07;99389.84;;;11.43;59.20
69879;BME280;57161;43.136;24.706;2023-10-08T04:15:41;99378.50;;;11.28;59.58
69879;BME280;57161;43.136;24.706;2023-10-08T04:18:11;99392.53;;;11.36;59.74
69879;BME280;57161;43.136;24.706;2023-10-08T04:20:38;99391.59;;;11.33;59.72
69879;BME280;57161;43.136;24.706;2023-10-08T04:23:06;99379.78;;;11.27;59.62
69879;BME280;57161;43.136;24.706;2023-10-08T04:25:39;99383.34;;;11.28;59.34
69879;BME280;57161;43.136;24.706;2023-10-08T04:28:07;99365.53;;;11.18;59.34
69879;BME280;57161;43.136;24.706;2023-10-08T04:30:38;99366.06;;;11.16;59.36
69879;BME280;57161;43.136;24.706;2023-10-08T04:33:07;99363.81;;;11.15;59.02
69879;BME280;57161;43.136;24.706;2023-10-08T04:35:34;99352.28;;;11.18;58.79
69879;BME280;57161;43.136;24.706;2023-10-08T04:38:09;99367.91;;;11.34;58.83
69879;BME280;57161;43.136;24.706;2023-10-08T04:40:36;99370.81;;;11.42;58.34
69879;BME280;57161;43.136;24.706;2023-10-08T04:43:14;99371.00;;;11.44;58.57
69879;BME280;57161;43.136;24.706;2023-10-08T04:45:41;99369.69;;;11.45;58.26
69879;BME280;57161;43.136;24.706;2023-10-08T04:48:06;99375.66;;;11.41;58.64
69879;BME280;57161;43.136;24.706;2023-10-08T04:50:36;99371.34;;;11.40;59.18
69879;BME280;57161;43.136;24.706;2023-10-08T04:53:03;99362.72;;;11.38;58.84
69879;BME280;57161;43.136;24.706;2023-10-08T04:55:34;99368.88;;;11.37;58.89
69879;BME280;57161;43.136;24.706;2023-10-08T04:58:00;99377.00;;;11.48;58.88
69879;BME280;57161;43.136;24.706;2023-10-08T05:00:30;99372.50;;;11.45;58.57
69879;BME280;57161;43.136;24.706;2023-10-08T05:03:19;99353.13;;;11.47;57.98
69879;BME280;57161;43.136;24.706;2023-10-08T05:05:47;99351.16;;;11.55;57.94
69879;BME280;57161;43.136;24.706;2023-10-08T05:08:31;99358.50;;;11.66;58.12
69879;BME280;57161;43.136;24.706;2023-10-08T05:11:15;99361.38;;;11.73;57.55
69879;BME280;57161;43.136;24.706;2023-10-08T05:13:50;99350.38;;;11.76;56.96
69879;BME280;57161;43.136;24.706;2023-10-08T05:16:27;99367.78;;;11.82;57.55
69879;BME280;57161;43.136;24.706;2023-10-08T05:19:09;99367.31;;;11.91;56.96
69879;BME280;57161;43.136;24.706;2023-10-08T05:21:55;99360.06;;;12.03;55.74
69879;BME280;57161;43.136;24.706;2023-10-08T05:24:47;99374.59;;;12.22;55.15
69879;BME280;57161;43.136;24.706;2023-10-08T05:27:42;99359.84;;;12.22;54.91
69879;BME280;57161;43.136;24.706;2023-10-08T05:30:21;99367.25;;;12.48;54.26
69879;BME280;57161;43.136;24.706;2023-10-08T05:33:06;99377.97;;;12.65;53.59
69879;BME280;57161;43.136;24.706;2023-10-08T05:35:39;99380.09;;;12.79;52.91
69879;BME280;57161;43.136;24.706;2023-10-08T05:38:15;99376.56;;;12.86;53.19
69879;BME280;57161;43.136;24.706;2023-10-08T05:40:47;99367.59;;;12.96;53.33
69879;BME280;57161;43.136;24.706;2023-10-08T05:43:27;99375.88;;;13.09;53.18
69879;BME280;57161;43.136;24.706;2023-10-08T05:46:15;99360.03;;;13.19;53.18
69879;BME280;57161;43.136;24.706;2023-10-08T05:48:50;99364.75;;;13.39;52.73
69879;BME280;57161;43.136;24.706;2023-10-08T05:51:30;99362.50;;;13.53;52.48
69879;BME280;57161;43.136;24.706;2023-10-08T05:54:18;99364.00;;;13.69;51.95
69879;BME280;57161;43.136;24.706;2023-10-08T05:57:10;99375.22;;;14.00;50.86
69879;BME280;57161;43.136;24.706;2023-10-08T05:59:45;99356.47;;;13.95;50.87
69879;BME280;57161;43.136;24.706;2023-10-08T06:02:20;99360.91;;;14.28;50.75
69879;BME280;57161;43.136;24.706;2023-10-08T06:05:03;99369.09;;;14.57;50.26
69879;BME280;57161;43.136;24.706;2023-10-08T06:07:39;99362.19;;;14.90;46.77
69879;BME280;57161;43.136;24.706;2023-10-08T06:13:05;99350.69;;;16.20;39.65
69879;BME280;57161;43.136;24.706;2023-10-08T06:15:51;99347.88;;;16.99;37.28
69879;BME280;57161;43.136;24.706;2023-10-08T06:18:31;99349.97;;;17.26;37.14
69879;BME280;57161;43.136;24.706;2023-10-08T06:21:00;99345.63;;;17.61;36.50
69879;BME280;57161;43.136;24.706;2023-10-08T06:23:30;99341.25;;;17.87;35.46
69879;BME280;57161;43.136;24.706;2023-10-08T06:26:00;99335.63;;;18.36;34.29
69879;BME280;57161;43.136;24.706;2023-10-08T06:28:46;99324.94;;;18.73;34.36
69879;BME280;57161;43.136;24.706;2023-10-08T06:31:12;99324.88;;;18.92;33.95
69879;BME280;57161;43.136;24.706;2023-10-08T06:33:41;99327.78;;;19.13;33.34
69879;BME280;57161;43.136;24.706;2023-10-08T06:36:07;99340.97;;;19.40;33.02
69879;BME280;57161;43.136;24.706;2023-10-08T06:41:09;99320.91;;;19.88;32.11
69879;BME280;57161;43.136;24.706;2023-10-08T06:43:38;99335.94;;;20.12;31.71
69879;BME280;57161;43.136;24.706;2023-10-08T06:46:04;99334.31;;;20.30;31.70
69879;BME280;57161;43.136;24.706;2023-10-08T06:48:32;99323.91;;;20.45;31.33
69879;BME280;57161;43.136;24.706;2023-10-08T06:51:00;99322.63;;;20.57;31.15
69879;BME280;57161;43.136;24.706;2023-10-08T06:53:42;99318.47;;;20.82;30.35
69879;BME280;57161;43.136;24.706;2023-10-08T06:56:10;99334.81;;;20.93;31.31
69879;BME280;57161;43.136;24.706;2023-10-08T06:58:38;99324.47;;;21.09;31.23
69879;BME280;57161;43.136;24.706;2023-10-08T07:01:04;99325.97;;;21.22;30.15
69879;BME280;57161;43.136;24.706;2023-10-08T07:03:31;99331.44;;;21.41;30.56
69879;BME280;57161;43.136;24.706;2023-10-08T07:05:57;99333.78;;;21.56;30.34
69879;BME280;57161;43.136;24.706;2023-10-08T07:08:25;99320.31;;;21.69;29.81
69879;BME280;57161;43.136;24.706;2023-10-08T07:10:51;99322.25;;;21.78;29.73
69879;BME280;57161;43.136;24.706;2023-10-08T07:13:18;99312.13;;;21.86;29.44
69879;BME280;57161;43.136;24.706;2023-10-08T07:15:50;99326.69;;;22.04;30.23
69879;BME280;57161;43.136;24.706;2023-10-08T07:18:16;99313.94;;;22.17;29.58
69879;BME280;57161;43.136;24.706;2023-10-08T07:20:55;99318.44;;;22.34;28.89
69879;BME280;57161;43.136;24.706;2023-10-08T07:23:26;99309.00;;;22.43;29.02
69879;BME280;57161;43.136;24.706;2023-10-08T07:28:40;99302.09;;;22.60;28.82
69879;BME280;57161;43.136;24.706;2023-10-08T07:31:23;99309.97;;;22.73;28.79
69879;BME280;57161;43.136;24.706;2023-10-08T07:33:51;99301.72;;;22.91;28.59
69879;BME280;57161;43.136;24.706;2023-10-08T07:36:27;99301.75;;;23.04;28.59
69879;BME280;57161;43.136;24.706;2023-10-08T07:38:53;99299.78;;;23.34;28.42
69879;BME280;57161;43.136;24.706;2023-10-08T07:41:20;99290.84;;;23.68;27.91
69879;BME280;57161;43.136;24.706;2023-10-08T07:43:47;99285.22;;;23.83;27.23
69879;BME280;57161;43.136;24.706;2023-10-08T07:46:23;99273.41;;;23.75;27.36
69879;BME280;57161;43.136;24.706;2023-10-08T07:48:48;99295.91;;;23.69;27.20
69879;BME280;57161;43.136;24.706;2023-10-08T07:51:15;99276.56;;;23.54;27.32
69879;BME280;57161;43.136;24.706;2023-10-08T07:53:42;99280.69;;;23.51;27.42
69879;BME280;57161;43.136;24.706;2023-10-08T07:56:08;99283.00;;;23.41;27.81
69879;BME280;57161;43.136;24.706;2023-10-08T07:58:34;99285.44;;;23.32;27.97
69879;BME280;57161;43.136;24.706;2023-10-08T08:01:12;99280.78;;;23.25;28.04
69879;BME280;57161;43.136;24.706;2023-10-08T08:03:39;99302.84;;;23.25;27.99
69879;BME280;57161;43.136;24.706;2023-10-08T08:06:07;99274.00;;;23.05;27.94
69879;BME280;57161;43.136;24.706;2023-10-08T08:08:34;99281.81;;;23.04;28.46
69879;BME280;57161;43.136;24.706;2023-10-08T08:11:05;99290.34;;;23.04;28.40
69879;BME280;57161;43.136;24.706;2023-10-08T08:13:34;99286.97;;;23.08;28.34
69879;BME280;57161;43.136;24.706;2023-10-08T08:16:00;99265.44;;;23.05;28.10
69879;BME280;57161;43.136;24.706;2023-10-08T08:18:37;99264.09;;;23.33;27.64
69879;BME280;57161;43.136;24.706;2023-10-08T08:21:03;99264.94;;;23.50;27.92
69879;BME280;57161;43.136;24.706;2023-10-08T08:23:29;99244.69;;;23.57;27.73
69879;BME280;57161;43.136;24.706;2023-10-08T08:25:56;99259.47;;;23.81;27.74
69879;BME280;57161;43.136;24.706;2023-10-08T08:28:38;99246.22;;;23.88;27.48
69879;BME280;57161;43.136;24.706;2023-10-08T08:31:05;99241.72;;;24.12;27.43
69879;BME280;57161;43.136;24.706;2023-10-08T08:33:41;99247.72;;;24.18;27.48
69879;BME280;57161;43.136;24.706;2023-10-08T08:36:19;99233.81;;;24.40;27.63
69879;BME280;57161;43.136;24.706;2023-10-08T08:38:46;99241.59;;;24.53;27.78
69879;BME280;57161;43.136;24.706;2023-10-08T08:41:14;99245.59;;;24.78;27.64
69879;BME280;57161;43.136;24.706;2023-10-08T08:43:47;99237.94;;;24.82;27.42
69879;BME280;57161;43.136;24.706;2023-10-08T08:46:13;99220.94;;;24.55;27.22
69879;BME280;57161;43.136;24.706;2023-10-08T08:48:43;99235.59;;;24.47;27.68
69879;BME280;57161;43.136;24.706;2023-10-08T08:51:12;99228.50;;;24.48;27.83
69879;BME280;57161;43.136;24.706;2023-10-08T08:53:39;99232.91;;;24.51;27.87
69879;BME280;57161;43.136;24.706;2023-10-08T08:56:07;99214.31;;;24.50;27.45
69879;BME280;57161;43.136;24.706;2023-10-08T08:58:35;99231.75;;;24.72;27.56
69879;BME280;57161;43.136;24.706;2023-10-08T09:01:01;99206.25;;;24.76;27.60
69879;BME280;57161;43.136;24.706;2023-10-08T09:03:29;99209.44;;;24.84;27.53
69879;BME280;57161;43.136;24.706;2023-10-08T09:05:58;99212.03;;;24.94;27.70
69879;BME280;57161;43.136;24.706;2023-10-08T09:08:28;99217.69;;;25.08;27.00
69879;BME280;57161;43.136;24.706;2023-10-08T09:10:59;99211.59;;;25.16;27.14
69879;BME280;57161;43.136;24.706;2023-10-08T09:13:31;99198.75;;;25.17;27.17
69879;BME280;57161;43.136;24.706;2023-10-08T09:16:16;99215.34;;;25.20;27.16
69879;BME280;57161;43.136;24.706;2023-10-08T09:18:47;99197.28;;;25.16;27.15
69879;BME280;57161;43.136;24.706;2023-10-08T09:21:18;99178.91;;;25.21;27.06
69879;BME280;57161;43.136;24.706;2023-10-08T09:23:52;99209.44;;;25.32;27.10
69879;BME280;57161;43.136;24.706;2023-10-08T09:26:23;99182.47;;;25.37;27.45
69879;BME280;57161;43.136;24.706;2023-10-08T09:28:49;99189.16;;;25.59;27.08
69879;BME280;57161;43.136;24.706;2023-10-08T09:31:15;99181.56;;;25.66;26.79
69879;BME280;57161;43.136;24.706;2023-10-08T09:34:03;99183.44;;;25.93;26.47
69879;BME280;57161;43.136;24.706;2023-10-08T09:36:29;99185.72;;;26.14;26.18
69879;BME280;57161;43.136;24.706;2023-10-08T09:39:03;99182.91;;;26.34;26.15
69879;BME280;57161;43.136;24.706;2023-10-08T09:41:32;99180.69;;;26.50;25.91
69879;BME280;57161;43.136;24.706;2023-10-08T09:43:58;99159.25;;;26.51;26.17
69879;BME280;57161;43.136;24.706;2023-10-08T09:46:31;99175.69;;;26.51;25.64
69879;BME280;57161;43.136;24.706;2023-10-08T09:49:02;99172.94;;;26.53;26.00
69879;BME280;57161;43.136;24.706;2023-10-08T09:51:30;99156.69;;;26.59;25.98
69879;BME280;57161;43.136;24.706;2023-10-08T09:54:11;99168.69;;;26.74;26.12
69879;BME280;57161;43.136;24.706;2023-10-08T09:56:39;99162.38;;;26.77;26.18
69879;BME280;57161;43.136;24.706;2023-10-08T09:59:06;99156.44;;;26.71;26.32
69879;BME280;57161;43.136;24.706;2023-10-08T10:01:40;99163.09;;;26.58;26.15
69879;BME280;57161;43.136;24.706;2023-10-08T10:04:10;99155.97;;;26.59;26.57
69879;BME280;57161;43.136;24.706;2023-10-08T10:06:37;99143.25;;;26.64;26.53
69879;BME280;57161;43.136;24.706;2023-10-08T10:09:04;99129.97;;;26.53;26.49
69879;BME280;57161;43.136;24.706;2023-10-08T10:11:33;99120.84;;;26.39;26.29
69879;BME280;57161;43.136;24.706;2023-10-08T10:14:00;99126.88;;;26.29;27.04
69879;BME280;57161;43.136;24.706;2023-10-08T10:16:26;99133.34;;;26.29;26.68
69879;BME280;57161;43.136;24.706;2023-10-08T10:18:55;99125.59;;;26.14;27.45
69879;BME280;57161;43.136;24.706;2023-10-08T10:21:29;99145.38;;;26.26;27.52
69879;BME280;57161;43.136;24.706;2023-10-08T10:23:56;99142.00;;;26.31;27.10
69879;BME280;57161;43.136;24.706;2023-10-08T10:26:32;99130.91;;;26.40;27.22
69879;BME280;57161;43.136;24.706;2023-10-08T10:31:44;99143.63;;;26.54;27.03
69879;BME280;57161;43.136;24.706;2023-10-08T10:34:16;99134.16;;;26.70;26.86
69879;BME280;57161;43.136;24.706;2023-10-08T10:36:43;99132.91;;;26.75;26.65
69879;BME280;57161;43.136;24.706;2023-10-08T10:39:13;99127.47;;;26.83;26.40
69879;BME280;57161;43.136;24.706;2023-10-08T10:41:48;99147.09;;;27.10;26.23
69879;BME280;57161;43.136;24.706;2023-10-08T10:44:14;99125.41;;;27.25;26.49
69879;BME280;57161;43.136;24.706;2023-10-08T10:46:44;99128.47;;;27.31;26.62
69879;BME280;57161;43.136;24.706;2023-10-08T10:49:19;99137.28;;;27.37;26.61
69879;BME280;57161;43.136;24.706;2023-10-08T10:51:56;99124.28;;;27.34;26.07
69879;BME280;57161;43.136;24.706;2023-10-08T10:54:25;99114.78;;;27.30;26.42
69879;BME280;57161;43.136;24.706;2023-10-08T10:56:52;99117.94;;;27.38;26.31
69879;BME280;57161;43.136;24.706;2023-10-08T10:59:29;99104.22;;;27.34;26.10
69879;BME280;57161;43.136;24.706;2023-10-08T11:02:05;99114.66;;;27.47;25.92
69879;BME280;57161;43.136;24.706;2023-10-08T11:04:36;99119.88;;;27.31;26.31
69879;BME280;57161;43.136;24.706;2023-10-08T11:07:23;99108.19;;;27.47;26.46
69879;BME280;57161;43.136;24.706;2023-10-08T11:09:50;99105.50;;;27.73;26.77
69879;BME280;57161;43.136;24.706;2023-10-08T11:12:18;99091.25;;;27.99;26.45
69879;BME280;57161;43.136;24.706;2023-10-08T11:14:58;99107.47;;;27.90;26.90
69879;BME280;57161;43.136;24.706;2023-10-08T11:17:26;99083.84;;;27.92;27.46
69879;BME280;57161;43.136;24.706;2023-10-08T11:19:53;99089.13;;;27.99;27.37
69879;BME280;57161;43.136;24.706;2023-10-08T11:22:19;99062.50;;;27.75;27.34
69879;BME280;57161;43.136;24.706;2023-10-08T11:24:48;99085.88;;;27.87;27.38
69879;BME280;57161;43.136;24.706;2023-10-08T11:27:18;99072.41;;;27.70;27.63
69879;BME280;57161;43.136;24.706;2023-10-08T11:30:01;99074.47;;;27.67;27.71
69879;BME280;57161;43.136;24.706;2023-10-08T11:32:27;99072.59;;;27.76;27.31
69879;BME280;57161;43.136;24.706;2023-10-08T11:34:57;99072.75;;;28.04;27.33
69879;BME280;57161;43.136;24.706;2023-10-08T11:37:29;99078.50;;;28.28;27.16
69879;BME280;57161;43.136;24.706;2023-10-08T11:39:58;99058.25;;;28.48;27.11
69879;BME280;57161;43.136;24.706;2023-10-08T11:42:27;99081.53;;;28.84;27.26
69879;BME280;57161;43.136;24.706;2023-10-08T11:44:58;99091.56;;;28.83;27.37
69879;BME280;57161;43.136;24.706;2023-10-08T11:47:42;99073.34;;;28.48;27.20
69879;BME280;57161;43.136;24.706;2023-10-08T11:50:10;99075.59;;;28.52;27.26
69879;BME280;57161;43.136;24.706;2023-10-08T11:52:36;99056.75;;;28.47;27.05
69879;BME280;57161;43.136;24.706;2023-10-08T11:55:10;99060.00;;;28.59;27.09
69879;BME280;57161;43.136;24.706;2023-10-08T11:57:44;99052.66;;;28.54;26.85
69879;BME280;57161;43.136;24.706;2023-10-08T12:00:12;99067.38;;;28.40;26.80
69879;BME280;57161;43.136;24.706;2023-10-08T12:02:47;99056.66;;;28.43;26.98
69879;BME280;57161;43.136;24.706;2023-10-08T12:05:13;99063.44;;;28.53;27.33
69879;BME280;57161;43.136;24.706;2023-10-08T12:07:48;99047.81;;;28.60;26.79
69879;BME280;57161;43.136;24.706;2023-10-08T12:10:14;99045.84;;;28.67;26.85
69879;BME280;57161;43.136;24.706;2023-10-08T12:12:42;99042.25;;;28.66;26.95
69879;BME280;57161;43.136;24.706;2023-10-08T12:15:13;99043.31;;;28.53;27.12
69879;BME280;57161;43.136;24.706;2023-10-08T12:17:46;99026.53;;;28.44;27.29
69879;BME280;57161;43.136;24.706;2023-10-08T12:20:18;99033.50;;;28.36;27.01
69879;BME280;57161;43.136;24.706;2023-10-08T12:22:51;99011.84;;;28.31;26.94
69879;BME280;57161;43.136;24.706;2023-10-08T12:25:16;99013.63;;;28.21;26.97
69879;BME280;57161;43.136;24.706;2023-10-08T12:27:41;99013.38;;;28.13;27.18
69879;BME280;57161;43.136;24.706;2023-10-08T12:30:07;99003.94;;;28.08;27.09
69879;BME280;57161;43.136;24.706;2023-10-08T12:32:36;99003.44;;;28.16;27.60
69879;BME280;57161;43.136;24.706;2023-10-08T12:35:10;99031.50;;;27.93;27.63
69879;BME280;57161;43.136;24.706;2023-10-08T12:37:39;99001.00;;;27.82;27.96
69879;BME280;57161;43.136;24.706;2023-10-08T12:40:06;99017.63;;;27.86;28.29
69879;BME280;57161;43.136;24.706;2023-10-08T12:42:38;99023.44;;;27.88;28.20
69879;BME280;57161;43.136;24.706;2023-10-08T12:45:09;99020.25;;;27.77;27.72
69879;BME280;57161;43.136;24.706;2023-10-08T12:47:38;99019.72;;;27.83;27.84
69879;BME280;57161;43.136;24.706;2023-10-08T12:50:04;99002.66;;;27.65;27.96
69879;BME280;57161;43.136;24.706;2023-10-08T12:52:33;98999.72;;;27.63;28.41
69879;BME280;57161;43.136;24.706;2023-10-08T12:55:00;99009.38;;;27.74;28.25
69879;BME280;57161;43.136;24.706;2023-10-08T12:57:32;99006.84;;;27.84;27.84
69879;BME280;57161;43.136;24.706;2023-10-08T13:00:00;99021.25;;;27.86;27.51
69879;BME280;57161;43.136;24.706;2023-10-08T13:02:25;99013.72;;;27.99;27.91
69879;BME280;57161;43.136;24.706;2023-10-08T13:04:54;99022.06;;;28.15;27.03
69879;BME280;57161;43.136;24.706;2023-10-08T13:07:21;99004.72;;;28.10;27.46
69879;BME280;57161;43.136;24.706;2023-10-08T13:09:47;99023.78;;;28.24;27.23
69879;BME280;57161;43.136;24.706;2023-10-08T13:12:13;99011.94;;;28.11;27.16
69879;BME280;57161;43.136;24.706;2023-10-08T13:14:41;99016.78;;;28.05;27.63
69879;BME280;57161;43.136;24.706;2023-10-08T13:17:10;99019.59;;;28.03;27.67
69879;BME280;57161;43.136;24.706;2023-10-08T13:19:38;99026.13;;;28.05;27.52
69879;BME280;57161;43.136;24.706;2023-10-08T13:22:04;99010.97;;;27.79;27.58